Time;durP1;ratioP1;P1;durP2;ratioP2;P2;SDS_P1;SDS_P2;PMS_P1;PMS_P2;Temp;Humidity;BMP_temperature;BMP_pressure;BME280_temperature;BME280_humidity;BME280_pressure;Samples;Min_cycle;Max_cycle;Signal;HPM_P1;HPM_P2
2021/11/12 00:14:24;;;;;;;12.52;7.12;;;;;;;18.35;47.90;100499.38;4433331;32;20052;-70
2021/11/12 00:16:51;;;;;;;11.43;6.47;;;;;;;18.50;47.55;100492.31;4427605;32;20058;-70
2021/11/12 00:19:18;;;;;;;14.02;7.30;;;;;;;18.05;48.39;100493.00;4430919;32;20111;-69
2021/11/12 00:21:45;;;;;;;12.32;6.93;;;;;;;18.25;48.38;100490.16;4436009;32;20066;-69
2021/11/12 00:24:11;;;;;;;11.65;6.65;;;;;;;18.43;48.19;100491.97;4435827;32;20041;-69
2021/11/12 00:26:38;;;;;;;15.45;6.65;;;;;;;18.43;48.14;100489.13;4435861;32;20029;-69
2021/11/12 00:29:05;;;;;;;13.65;6.75;;;;;;;18.63;47.64;100483.44;4436658;32;20636;-69
2021/11/12 00:31:39;;;;;;;14.82;6.75;;;;;;;18.49;47.89;100487.91;4432555;32;20511;-69
2021/11/12 00:45:00;;;;;;;18.48;6.18;;;;;;;19.31;45.94;100473.81;3978459;32;15026555;-70
2021/11/12 00:47:40;;;;;;;9.60;6.22;;;;;;;19.31;45.94;100473.81;4426849;32;20484;-70
2021/11/12 00:55:36;;;;;;;11.43;6.32;;;;;;;19.66;45.25;100414.91;3977449;32;15022687;-70
2021/11/12 00:58:03;;;;;;;12.40;5.97;;;;;;;19.68;45.25;100416.75;4428700;32;20042;-70
2021/11/12 01:00:28;;;;;;;10.48;5.72;;;;;;;19.13;45.91;100404.88;4428801;32;20038;-70
2021/11/12 01:02:55;;;;;;;11.50;5.37;;;;;;;18.91;46.29;100376.97;4430407;32;20067;-70
2021/11/12 01:05:21;;;;;;;10.55;5.30;;;;;;;18.83;46.34;100367.28;4429376;32;20494;-70
2021/11/12 01:07:48;;;;;;;10.25;5.35;;;;;;;18.55;46.90;100377.62;4428733;32;20074;-70
2021/11/12 01:10:15;;;;;;;11.85;5.03;;;;;;;17.94;48.24;100373.25;4431074;32;20125;-70
2021/11/12 01:12:42;;;;;;;11.27;5.25;;;;;;;18.00;48.30;100353.38;4425764;32;20419;-70
2021/11/12 01:15:12;;;;;;;8.75;5.30;;;;;;;17.63;48.75;100336.09;4428838;32;20183;-70
2021/11/12 01:17:39;;;;;;;12.60;6.35;;;;;;;18.12;47.79;100344.47;4429879;32;20038;-70
2021/11/12 01:20:06;;;;;;;13.40;5.15;;;;;;;17.59;48.75;100342.00;4430277;32;20081;-70
2021/11/12 01:22:33;;;;;;;11.75;4.65;;;;;;;17.38;49.73;100331.03;4429386;32;20064;-70
2021/11/12 01:25:02;;;;;;;10.98;5.35;;;;;;;17.12;49.73;100308.16;4428700;32;20061;-70
2021/11/12 01:27:28;;;;;;;11.60;4.72;;;;;;;17.34;49.73;100302.81;4429084;32;20034;-70
2021/11/12 01:29:54;;;;;;;11.50;4.82;;;;;;;17.19;49.68;100298.44;4428241;32;20525;-70
2021/11/12 01:32:21;;;;;;;8.88;4.85;;;;;;;16.96;50.33;100300.16;4428051;32;20068;-70
2021/11/12 01:34:50;;;;;;;11.80;5.87;;;;;;;17.41;49.22;100282.50;4428818;32;20078;-70
2021/11/12 01:37:20;;;;;;;8.57;4.53;;;;;;;17.54;48.95;100277.25;4430717;32;20063;-70
2021/11/12 01:39:52;;;;;;;11.10;4.82;;;;;;;17.30;49.51;100282.31;4429381;32;20122;-70
2021/11/12 01:42:19;;;;;;;9.60;4.62;;;;;;;17.18;49.84;100289.13;4428917;32;20077;-70
2021/11/12 01:44:50;;;;;;;11.77;5.37;;;;;;;17.36;49.54;100259.62;4425649;32;20552;-70
2021/11/12 01:47:26;;;;;;;14.20;4.82;;;;;;;17.32;49.55;100254.19;4432320;32;20107;-70
2021/11/12 01:49:55;;;;;;;8.05;4.45;;;;;;;16.96;50.13;100240.47;4427846;32;20064;-70
2021/11/12 01:52:41;;;;;;;11.02;5.25;;;;;;;17.22;49.82;100238.53;4430762;32;20159;-70
2021/11/12 01:55:11;;;;;;;10.27;4.85;;;;;;;17.34;49.37;100228.84;4429265;32;20420;-70
2021/11/12 02:00:18;;;;;;;9.65;4.40;;;;;;;17.40;49.28;100232.53;3982249;32;15024292;-70
2021/11/12 02:02:44;;;;;;;7.12;4.22;;;;;;;17.39;49.45;100230.19;4434681;32;20307;-70
2021/11/12 02:05:11;;;;;;;9.85;4.32;;;;;;;17.26;49.46;100241.16;4433504;32;20072;-70
2021/11/12 02:07:38;;;;;;;6.47;3.78;;;;;;;17.67;48.68;100243.53;4436898;32;20110;-70
2021/11/12 02:10:10;;;;;;;6.97;3.42;;;;;;;17.88;48.16;100244.28;4434364;32;20117;-70
2021/11/12 02:12:46;;;;;;;9.50;3.55;;;;;;;18.03;47.69;100247.03;4434003;32;20048;-70
2021/11/12 02:15:12;;;;;;;6.40;3.70;;;;;;;18.03;47.56;100258.41;4436943;32;20141;-70
2021/11/12 02:17:42;;;;;;;9.00;3.90;;;;;;;17.95;47.56;100252.41;4439637;32;21204;-70
2021/11/12 02:20:22;;;;;;;7.20;3.87;;;;;;;17.81;48.19;100234.13;4433123;32;20103;-70
2021/11/12 02:22:52;;;;;;;9.93;3.30;;;;;;;18.00;47.76;100239.47;4433026;32;20072;-70
2021/11/12 02:25:28;;;;;;;7.78;4.18;;;;;;;17.47;48.60;100232.19;4438694;32;20434;-70
2021/11/12 02:28:01;;;;;;;7.72;3.87;;;;;;;17.72;48.28;100242.81;4437257;32;20074;-70
2021/11/12 02:30:29;;;;;;;7.18;3.62;;;;;;;17.53;48.86;100224.50;4433275;32;20070;-70
2021/11/12 02:33:16;;;;;;;11.25;4.15;;;;;;;17.45;49.06;100229.03;4434895;32;20033;-70
2021/11/12 02:36:00;;;;;;;6.90;3.58;;;;;;;17.90;47.95;100227.50;4433366;32;20140;-70
2021/11/12 02:38:26;;;;;;;9.23;3.87;;;;;;;18.15;47.46;100235.25;4435195;32;21199;-70
2021/11/12 02:40:52;;;;;;;6.30;3.70;;;;;;;18.38;46.94;100231.34;4432016;32;20086;-70
2021/11/12 02:43:18;;;;;;;8.82;4.18;;;;;;;18.26;47.18;100215.44;4435129;32;20089;-70
2021/11/12 02:45:44;;;;;;;8.73;3.55;;;;;;;17.99;47.80;100210.25;4433354;32;20077;-70
2021/11/12 02:48:11;;;;;;;7.18;3.78;;;;;;;18.05;47.70;100202.56;4435547;32;20068;-70
2021/11/12 02:50:39;;;;;;;12.90;3.90;;;;;;;18.12;47.47;100204.16;4438583;32;20145;-70
2021/11/12 02:53:12;;;;;;;7.03;3.60;;;;;;;18.62;46.42;100216.81;4436745;32;20075;-70
2021/11/12 02:55:38;;;;;;;7.32;3.45;;;;;;;18.39;46.93;100209.34;4436521;32;20081;-70
2021/11/12 02:58:05;;;;;;;9.18;3.25;;;;;;;18.65;46.29;100207.25;4429513;32;20081;-70
2021/11/12 03:00:31;;;;;;;8.88;3.70;;;;;;;18.55;46.38;100212.34;4433461;32;20085;-70
2021/11/12 03:02:58;;;;;;;8.45;3.67;;;;;;;18.15;47.23;100203.13;4434622;32;20426;-70
2021/11/12 03:05:24;;;;;;;6.47;3.60;;;;;;;18.39;46.69;100192.25;4436778;32;20077;-70
2021/11/12 03:07:50;;;;;;;8.77;3.05;;;;;;;18.59;46.43;100197.88;4435691;32;20090;-70
2021/11/12 03:10:17;;;;;;;7.15;3.35;;;;;;;17.98;47.58;100194.44;4427416;32;20050;-70
2021/11/12 03:12:43;;;;;;;9.00;3.30;;;;;;;18.45;46.71;100176.78;4424975;32;20566;-70
2021/11/12 03:15:10;;;;;;;8.00;3.58;;;;;;;18.44;46.79;100165.91;4425921;32;20093;-70
2021/11/12 03:17:38;;;;;;;7.18;3.03;;;;;;;18.35;46.99;100178.19;4422707;32;20138;-70
2021/11/12 03:20:06;;;;;;;8.85;3.12;;;;;;;18.59;46.49;100155.13;4426083;32;20094;-70
2021/11/12 03:22:38;;;;;;;5.45;3.25;;;;;;;18.42;47.12;100163.56;4425290;32;20073;-70
2021/11/12 03:25:09;;;;;;;8.52;3.33;;;;;;;18.40;47.05;100166.13;4425503;32;20081;-70
2021/11/12 03:27:41;;;;;;;6.35;3.90;;;;;;;18.48;46.87;100175.78;4422810;32;20079;-70
2021/11/12 04:03:18;;;;;;;7.43;3.50;;;;;;;18.72;46.14;100084.22;4430608;32;20461;-70
2021/11/12 05:12:11;;;;;;;8.77;4.80;;;;;;;17.35;51.67;99962.28;4436979;32;20452;-70
2021/11/12 05:45:13;;;;;;;8.75;5.30;;;;;;;18.26;50.00;99909.91;4417489;32;20108;-70
2021/11/12 05:50:33;;;;;;;13.80;5.45;;;;;;;18.97;48.40;99904.44;3983824;32;15024608;-70
2021/11/12 05:55:44;;;;;;;9.98;5.07;;;;;;;18.56;49.02;99894.00;4430002;32;20033;-70
2021/11/12 05:58:10;;;;;;;7.68;4.47;;;;;;;18.52;49.45;99879.19;4430140;32;20051;-70
2021/11/12 06:00:36;;;;;;;8.38;4.68;;;;;;;18.53;49.32;99881.53;4429693;32;20025;-70
2021/11/12 06:03:01;;;;;;;11.82;5.45;;;;;;;18.49;49.78;99886.69;4431726;32;20084;-70
2021/11/12 06:05:27;;;;;;;10.85;5.00;;;;;;;18.76;49.31;99890.91;4430736;32;20540;-70
2021/11/12 06:07:53;;;;;;;8.57;5.00;;;;;;;18.51;49.87;99886.97;4426644;32;20065;-70
2021/11/12 06:10:19;;;;;;;8.35;4.55;;;;;;;18.20;50.65;99887.09;4430674;32;20347;-70
2021/11/12 06:12:46;;;;;;;8.65;4.60;;;;;;;18.51;50.40;99897.59;4429210;32;20069;-70
2021/11/12 06:15:12;;;;;;;11.88;5.12;;;;;;;18.52;50.46;99896.28;4426393;32;20153;-70
2021/11/12 06:17:37;;;;;;;11.23;4.78;;;;;;;18.81;49.81;99888.06;4429228;32;20096;-70
2021/11/12 06:20:05;;;;;;;10.48;4.68;;;;;;;18.85;49.64;99885.75;4430204;32;20589;-70
2021/11/12 06:22:30;;;;;;;10.95;4.50;;;;;;;19.24;49.13;99878.00;4431777;32;20045;-70
2021/11/12 06:24:56;;;;;;;7.87;4.60;;;;;;;19.18;49.23;99885.75;4430789;32;20080;-70
2021/11/12 06:27:22;;;;;;;10.27;4.50;;;;;;;19.12;49.35;99878.53;4432126;32;20025;-70
2021/11/12 06:29:48;;;;;;;10.00;4.37;;;;;;;18.83;50.05;99876.16;4430640;32;20099;-70
2021/11/12 06:32:14;;;;;;;8.18;4.37;;;;;;;19.10;49.41;99881.09;4428698;32;20095;-70
2021/11/12 06:34:42;;;;;;;10.40;4.20;;;;;;;19.25;49.54;99873.06;4431613;32;20176;-70
2021/11/12 06:37:07;;;;;;;13.30;5.03;;;;;;;19.37;49.31;99864.03;4429368;32;20073;-71
2021/11/12 06:39:33;;;;;;;8.82;4.80;;;;;;;19.32;49.58;99861.94;4433110;32;20097;-70
2021/11/12 06:42:03;;;;;;;11.95;6.47;;;;;;;19.12;49.74;99856.47;4428637;32;20499;-70
2021/11/12 06:52:29;;;;;;;8.25;4.45;;;;;;;20.03;48.83;99865.94;3960000;32;15723403;-69
2021/11/12 06:54:57;;;;;;;15.70;5.55;;;;;;;20.03;48.83;99865.94;4438355;32;20397;-69
2021/11/12 06:57:23;;;;;;;10.65;4.20;;;;;;;19.29;49.85;99854.44;4439311;32;20049;-69
2021/11/12 06:59:50;;;;;;;11.05;4.25;;;;;;;19.10;50.51;99846.88;4439827;32;20398;-69
2021/11/12 07:02:18;;;;;;;7.78;4.47;;;;;;;19.14;50.18;99847.38;4437157;32;20076;-69
2021/11/12 07:04:44;;;;;;;9.05;4.43;;;;;;;19.46;49.75;99831.59;4439888;32;20359;-69
2021/11/12 07:07:10;;;;;;;9.63;4.70;;;;;;;19.48;49.68;99838.31;4424977;32;20045;-69
2021/11/12 07:09:38;;;;;;;10.88;4.57;;;;;;;19.36;49.78;99841.72;4437843;32;20068;-69
2021/11/12 07:12:04;;;;;;;6.75;3.90;;;;;;;19.62;49.83;99845.03;4439973;32;20541;-69
2021/11/12 07:14:30;;;;;;;10.23;4.35;;;;;;;19.65;49.46;99847.63;4438226;32;20029;-68
2021/11/12 07:16:55;;;;;;;7.60;3.97;;;;;;;19.49;49.79;99847.66;4437113;32;20364;-69
2021/11/12 07:19:21;;;;;;;9.15;4.22;;;;;;;19.64;49.47;99846.06;4439555;32;20069;-69
2021/11/12 07:21:47;;;;;;;12.63;4.22;;;;;;;19.64;49.52;99825.31;4439788;32;20675;-69
2021/11/12 07:24:13;;;;;;;8.50;4.37;;;;;;;19.91;49.01;99824.44;4438024;32;20063;-69
2021/11/12 07:26:39;;;;;;;10.52;4.45;;;;;;;19.74;49.15;99823.72;4437105;32;20098;-69
2021/11/12 07:29:05;;;;;;;12.90;3.83;;;;;;;20.09;48.62;99821.00;4438896;32;20061;-69
2021/11/12 07:31:31;;;;;;;12.70;4.15;;;;;;;20.06;48.37;99802.06;4422456;32;20127;-69
2021/11/12 07:34:00;;;;;;;8.05;3.80;;;;;;;20.22;48.40;99809.78;4441282;32;20509;-69
2021/11/12 07:36:35;;;;;;;10.93;4.55;;;;;;;19.91;48.55;99801.59;4437629;32;20018;-69
2021/11/12 07:39:07;;;;;;;14.13;4.37;;;;;;;20.18;48.44;99808.50;4434268;32;20073;-69
2021/11/12 07:41:55;;;;;;;8.52;3.78;;;;;;;20.15;48.25;99804.63;4434043;32;20029;-68
2021/11/12 07:44:33;;;;;;;8.82;3.50;;;;;;;19.72;48.83;99804.28;4432349;32;20025;-68
2021/11/12 07:47:10;;;;;;;8.20;3.62;;;;;;;20.18;48.14;99797.09;4432114;32;20338;-68
2021/11/12 07:49:37;;;;;;;13.90;3.58;;;;;;;20.27;47.83;99803.28;4432116;32;21009;-68
2021/11/12 07:52:05;;;;;;;7.60;3.40;;;;;;;20.43;47.71;99795.94;4433335;32;20057;-69
2021/11/12 07:54:31;;;;;;;8.65;3.53;;;;;;;20.71;47.17;99800.12;4435583;32;20090;-68
2021/11/12 07:56:59;;;;;;;9.25;2.70;;;;;;;20.36;47.81;99790.75;4433429;32;20395;-69
2021/11/12 07:59:25;;;;;;;9.18;3.12;;;;;;;20.14;48.17;99785.16;4427257;32;20116;-69
2021/11/12 08:01:51;;;;;;;8.30;3.92;;;;;;;20.26;48.02;99784.59;4420621;32;20146;-69
2021/11/12 08:04:18;;;;;;;10.98;3.50;;;;;;;20.48;47.59;99775.88;4416626;32;20037;-69
2021/11/12 08:06:45;;;;;;;12.88;4.05;;;;;;;20.01;48.75;99784.94;4410972;32;20473;-69
2021/11/12 08:09:14;;;;;;;10.05;3.67;;;;;;;19.97;48.88;99778.75;4414165;32;20034;-69
2021/11/12 08:11:45;;;;;;;10.40;3.40;;;;;;;20.26;47.64;99783.81;4417329;32;20046;-70
2021/11/12 08:14:16;;;;;;;10.60;3.37;;;;;;;20.00;48.73;99784.16;4413830;32;20088;-69
2021/11/12 08:16:52;;;;;;;10.85;3.67;;;;;;;20.10;48.41;99784.66;4414262;32;20189;-69
2021/11/12 08:19:33;;;;;;;11.60;3.60;;;;;;;20.43;47.89;99779.53;4412600;32;20096;-69
2021/11/12 08:22:08;;;;;;;9.52;3.33;;;;;;;20.65;47.21;99779.37;4418824;32;20607;-69
2021/11/12 08:30:02;;;;;;;9.63;3.35;;;;;;;21.27;45.99;99780.44;3969549;32;15022010;-70
2021/11/12 08:32:55;;;;;;;15.90;4.03;;;;;;;21.27;45.99;99780.44;4422859;32;20158;-69
2021/11/12 08:35:37;;;;;;;10.23;3.30;;;;;;;20.84;46.60;99780.31;4424127;32;20431;-69
2021/11/12 08:38:11;;;;;;;11.68;3.80;;;;;;;20.74;46.77;99775.44;4424278;32;21180;-68
2021/11/12 08:43:25;;;;;;;11.30;2.92;;;;;;;21.44;46.03;99770.38;3954598;32;15023404;-70
2021/11/12 08:48:39;;;;;;;13.23;3.58;;;;;;;21.30;45.87;99762.97;3967228;32;15025670;-69
2021/11/12 08:51:11;;;;;;;11.88;3.65;;;;;;;20.97;46.79;99754.72;4409294;32;20049;-70
2021/11/12 08:53:37;;;;;;;13.52;4.22;;;;;;;20.95;46.82;99743.03;4408777;32;20624;-70
2021/11/12 08:56:04;;;;;;;13.10;3.90;;;;;;;21.12;46.11;99748.59;4409040;32;20096;-70
2021/11/12 08:58:30;;;;;;;8.90;3.67;;;;;;;21.16;46.40;99738.41;4411934;32;20120;-70
2021/11/12 09:00:56;;;;;;;13.43;3.67;;;;;;;21.06;46.17;99745.03;4408802;32;20616;-70
2021/11/12 09:03:22;;;;;;;15.65;6.10;;;;;;;21.12;46.25;99743.66;4408188;32;20074;-70
2021/11/12 09:05:48;;;;;;;14.13;4.07;;;;;;;21.39;45.89;99745.44;4412313;32;20026;-70
2021/11/12 09:08:14;;;;;;;12.25;3.55;;;;;;;21.18;46.25;99741.53;4414230;32;20105;-70
2021/11/12 09:10:40;;;;;;;11.23;3.78;;;;;;;21.17;46.06;99736.34;4415567;32;20096;-70
2021/11/12 09:15:56;;;;;;;;;;;;;;;21.33;45.91;99732.53;4411828;32;20073;-71
2021/11/12 09:18:23;;;;;;;15.05;4.07;;;;;;;21.37;45.50;99735.84;4413958;32;20019;-71
2021/11/12 09:20:50;;;;;;;15.90;3.75;;;;;;;21.01;46.31;99722.94;4412844;32;20115;-70
2021/11/12 09:23:16;;;;;;;14.98;3.85;;;;;;;21.32;45.91;99705.19;4415535;32;20073;-70
2021/11/12 09:25:42;;;;;;;16.87;2.97;;;;;;;21.37;45.91;99701.50;4423026;32;20443;-71
2021/11/12 09:28:10;;;;;;;19.90;3.40;;;;;;;21.38;45.65;99700.19;4410099;32;20070;-70
2021/11/12 09:30:36;;;;;;;14.15;2.95;;;;;;;21.55;45.32;99695.03;4410944;32;20196;-70
2021/11/12 09:33:04;;;;;;;11.30;3.85;;;;;;;20.84;46.63;99703.09;4406687;32;20034;-70
2021/11/12 09:35:30;;;;;;;14.50;3.62;;;;;;;21.43;45.78;99693.63;4411003;32;20073;-70
2021/11/12 09:37:57;;;;;;;17.52;3.33;;;;;;;21.08;46.52;99682.34;4411469;32;20065;-70
2021/11/12 09:40:22;;;;;;;17.27;3.70;;;;;;;20.89;46.88;99698.63;4412181;32;20041;-70
2021/11/12 09:42:50;;;;;;;17.02;3.45;;;;;;;20.88;46.72;99691.34;4407285;32;20073;-70
2021/11/12 09:45:16;;;;;;;20.17;3.83;;;;;;;20.52;47.50;99695.56;4408879;32;20038;-70
2021/11/12 09:47:43;;;;;;;15.70;3.25;;;;;;;20.63;47.47;99701.19;4408537;32;20060;-70
2021/11/12 09:50:16;;;;;;;21.05;3.12;;;;;;;21.18;46.30;99703.53;4408253;32;20153;-71
2021/11/12 09:52:42;;;;;;;12.00;2.90;;;;;;;21.33;46.09;99696.06;4413707;32;20078;-70
2021/11/12 09:55:09;;;;;;;19.37;4.20;;;;;;;21.15;45.94;99685.38;4414981;32;20152;-69
2021/11/12 09:57:35;;;;;;;17.85;2.97;;;;;;;21.62;45.33;99697.28;4406696;32;20094;-70
2021/11/12 10:00:07;;;;;;;19.62;3.30;;;;;;;21.37;45.40;99687.97;4397590;32;20634;-70
2021/11/12 10:02:40;;;;;;;13.13;2.50;;;;;;;21.61;45.10;99692.88;4398199;32;20945;-71
2021/11/12 10:05:07;;;;;;;23.23;5.97;;;;;;;21.45;44.90;99688.91;4402539;32;20094;-70
2021/11/12 10:07:35;;;;;;;17.42;3.17;;;;;;;21.44;44.89;99687.38;4403947;32;20108;-71
2021/11/12 10:10:06;;;;;;;26.98;3.78;;;;;;;21.78;44.45;99686.97;4401837;32;20111;-70
2021/11/12 10:12:35;;;;;;;23.52;4.45;;;;;;;21.68;44.17;99680.81;4398512;32;20093;-71
2021/11/12 10:15:22;;;;;;;17.75;3.20;;;;;;;21.82;44.11;99673.13;4385082;32;20140;-70
2021/11/12 10:17:49;;;;;;;;;;;;;;;21.76;43.34;99678.94;4399461;32;20490;-70
2021/11/12 10:20:18;;;;;;;15.05;3.35;;;;;;;22.09;42.76;99669.09;4397699;32;19984;-70
2021/11/12 10:22:47;;;;;;;19.85;3.95;;;;;;;21.93;43.58;99658.66;4399322;32;20077;-71
2021/11/12 10:25:15;;;;;;;17.30;2.92;;;;;;;22.08;43.08;99648.25;4393730;32;20088;-71
2021/11/12 10:27:50;;;;;;;12.10;2.87;;;;;;;22.29;42.67;99654.94;4400792;32;20077;-71
2021/11/12 10:30:23;;;;;;;20.92;4.07;;;;;;;22.33;42.42;99655.41;4398908;32;20046;-70
2021/11/12 10:32:53;;;;;;;23.73;4.22;;;;;;;22.19;43.10;99655.91;4393595;32;20419;-71
2021/11/12 10:38:07;;;;;;;19.17;3.28;;;;;;;22.03;44.11;99654.06;3944492;32;15726675;-70
2021/11/12 10:40:34;;;;;;;22.20;4.00;;;;;;;22.03;44.11;99654.06;4424558;32;20106;-70
2021/11/12 10:43:00;;;;;;;18.58;3.60;;;;;;;21.08;45.85;99643.03;4422371;32;20496;-70
2021/11/12 10:45:29;;;;;;;23.15;4.70;;;;;;;20.75;46.19;99659.75;4408049;32;20482;-70
2021/11/12 10:50:34;;;;;;;23.20;4.22;;;;;;;21.78;44.74;99636.19;3947417;32;15025298;-70
2021/11/12 10:53:10;;;;;;;26.15;4.55;;;;;;;21.78;44.74;99636.19;4400489;32;20064;-70
2021/11/12 10:55:36;;;;;;;19.12;3.58;;;;;;;21.54;44.20;99634.16;4399110;32;20425;-70
2021/11/12 10:58:06;;;;;;;17.37;3.55;;;;;;;21.19;44.81;99640.06;4396563;32;20402;-70
2021/11/12 11:03:12;;;;;;;26.70;4.15;;;;;;;22.20;43.41;99637.38;3972507;32;15020956;-71
2021/11/12 11:08:44;;;;;;;16.48;3.50;;;;;;;22.39;42.49;99636.00;3974834;32;15025097;-70
2021/11/12 11:11:11;;;;;;;15.18;2.92;;;;;;;21.95;43.46;99636.72;4427418;32;20025;-71
2021/11/12 11:13:40;;;;;;;22.42;3.00;;;;;;;21.70;43.85;99627.41;4424209;32;20064;-70
2021/11/12 11:16:08;;;;;;;27.55;4.25;;;;;;;21.86;43.75;99627.75;4429273;32;20069;-70
2021/11/12 11:24:05;;;;;;;16.37;3.50;;;;;;;22.45;43.25;99618.72;3975765;32;15022003;-68
2021/11/12 11:26:45;;;;;;;22.62;3.65;;;;;;;22.22;43.86;99614.69;4423748;32;20281;-69
2021/11/12 11:29:14;;;;;;;23.77;4.03;;;;;;;22.38;43.64;99616.50;4425100;32;20619;-69
2021/11/12 11:31:41;;;;;;;23.12;3.83;;;;;;;22.31;43.99;99605.69;4424918;32;20406;-69
2021/11/12 11:34:07;;;;;;;24.80;4.65;;;;;;;22.26;43.87;99601.59;4424290;32;21494;-69
2021/11/12 11:36:36;;;;;;;21.37;4.50;;;;;;;21.95;44.80;99610.16;4427416;32;20041;-69
2021/11/12 11:39:07;;;;;;;26.77;4.72;;;;;;;22.40;44.20;99603.16;4427781;32;20172;-69
2021/11/12 11:41:34;;;;;;;28.10;4.70;;;;;;;22.27;44.43;99602.38;4428443;32;20485;-69
2021/11/12 11:44:00;;;;;;;20.20;4.32;;;;;;;21.93;45.11;99598.50;4429248;32;20081;-69
2021/11/12 11:46:29;;;;;;;30.42;5.30;;;;;;;21.83;45.14;99594.47;4422903;32;20615;-69
2021/11/12 11:48:57;;;;;;;29.58;4.43;;;;;;;21.43;45.88;99597.09;4425598;32;20064;-70
2021/11/12 11:51:26;;;;;;;36.25;4.65;;;;;;;21.50;46.12;99589.97;4427153;32;20340;-70
2021/11/12 11:53:52;;;;;;;15.30;3.50;;;;;;;21.33;46.53;99581.59;4427605;32;20042;-70
2021/11/12 11:56:38;;;;;;;24.40;5.60;;;;;;;21.68;45.87;99572.00;4423975;32;20118;-70
2021/11/12 12:02:00;;;;;;;28.12;5.90;;;;;;;21.79;46.17;99571.88;3972863;32;15021477;-70
2021/11/12 12:04:31;;;;;;;23.45;5.07;;;;;;;21.79;46.17;99571.88;4426829;32;20068;-70
2021/11/12 12:07:17;;;;;;;29.25;4.55;;;;;;;21.23;47.09;99577.56;4427165;32;20535;-70
2021/11/12 12:10:21;;;;;;;24.50;4.90;;;;;;;21.59;46.00;99558.87;4422835;32;20509;-70
2021/11/12 12:12:50;;;;;;;24.58;4.62;;;;;;;21.31;46.47;99577.75;4420184;32;20112;-71
2021/11/12 12:18:11;;;;;;;27.77;5.30;;;;;;;22.39;45.03;99567.22;3961806;32;15022357;-71
2021/11/12 13:27:03;;;;;;;26.70;5.12;;;;;;;21.81;44.81;99480.44;4429253;32;20172;-69
2021/11/12 13:29:31;;;;;;;21.58;4.25;;;;;;;21.37;45.79;99463.97;4422439;32;20549;-69
2021/11/12 13:32:03;;;;;;;25.10;3.90;;;;;;;21.38;45.83;99469.16;4424239;32;20073;-68
2021/11/12 13:34:43;;;;;;;18.67;3.65;;;;;;;21.54;45.51;99465.25;4427554;32;20167;-70
2021/11/12 13:37:18;;;;;;;18.10;3.00;;;;;;;21.52;45.65;99470.75;4426601;32;20158;-71
2021/11/12 13:39:44;;;;;;;;;;;;;;;21.34;46.30;99468.69;4422663;32;20070;-69
2021/11/12 13:42:10;;;;;;;14.38;3.00;;;;;;;21.07;46.47;99458.41;4420323;32;20351;-69
2021/11/12 13:44:38;;;;;;;16.17;2.65;;;;;;;21.02;46.80;99462.13;4424816;32;20700;-70
2021/11/12 13:47:08;;;;;;;17.70;3.53;;;;;;;20.57;48.30;99463.22;4423822;32;20077;-70
2021/11/12 13:55:01;;;;;;;10.57;2.17;;;;;;;21.25;48.90;99468.31;3980987;32;15023751;-71
2021/11/12 13:57:28;;;;;;;12.77;2.20;;;;;;;21.25;48.90;99468.31;4435404;32;20142;-70
2021/11/12 14:02:31;;;;;;;14.45;3.08;;;;;;;20.80;50.76;99461.63;3962048;32;15025407;-70
2021/11/12 14:05:13;;;;;;;16.40;3.10;;;;;;;20.80;50.76;99461.63;4405968;32;20124;-69
2021/11/12 14:07:40;;;;;;;13.60;2.50;;;;;;;20.31;51.39;99454.44;4412744;32;20074;-69
2021/11/12 14:10:09;;;;;;;18.00;3.17;;;;;;;20.07;52.43;99449.47;4408907;32;20085;-69
2021/11/12 14:12:35;;;;;;;6.78;1.90;;;;;;;20.46;51.58;99446.22;4405857;32;20042;-69
2021/11/12 14:17:56;;;;;;;10.32;1.70;;;;;;;19.61;52.83;99441.09;3971659;32;15084153;-69
2021/11/12 14:23:05;;;;;;;9.60;1.90;;;;;;;20.28;51.92;99444.84;3975013;32;15023256;-69
2021/11/12 14:28:37;;;;;;;14.32;2.47;;;;;;;20.20;52.11;99440.25;3971804;32;15022065;-68
2021/11/12 14:31:08;;;;;;;11.95;2.45;;;;;;;20.20;52.11;99440.25;4421020;32;20545;-68
2021/11/12 14:39:52;;;;;;;18.62;2.67;;;;;;;20.45;50.76;99427.50;3969141;32;15023376;-68
2021/11/12 14:53:33;;;;;;;15.00;2.22;;;;;;;20.54;51.19;99432.84;4443496;32;20095;-70
2021/11/12 14:56:33;;;;;;;15.82;2.67;;;;;;;20.13;51.57;99430.22;4441445;32;20055;-69
2021/11/12 14:58:56;;;;;;;13.13;2.40;;;;;;;20.01;51.92;99425.91;4440671;32;20203;-69
2021/11/12 15:01:25;;;;;;;15.87;2.77;;;;;;;20.24;51.46;99430.09;4441151;32;20100;-70
2021/11/12 15:03:53;;;;;;;26.37;2.42;;;;;;;20.30;51.01;99438.59;4436971;32;20148;-69
2021/11/12 15:06:23;;;;;;;14.60;2.53;;;;;;;20.37;50.97;99432.28;4442029;32;20632;-69
2021/11/12 15:08:53;;;;;;;13.85;2.17;;;;;;;20.57;50.33;99429.69;4441167;32;20069;-69
2021/11/12 15:11:24;;;;;;;11.88;2.87;;;;;;;20.64;50.06;99422.59;4436670;32;20148;-69
2021/11/12 15:13:52;;;;;;;16.25;2.15;;;;;;;20.98;49.50;99423.69;4437057;32;20540;-69
2021/11/12 15:16:23;;;;;;;18.90;3.30;;;;;;;20.89;49.64;99424.84;4442313;32;20061;-69
2021/11/12 15:18:52;;;;;;;11.20;2.20;;;;;;;21.13;49.49;99424.78;4437501;32;20161;-69
2021/11/12 15:21:24;;;;;;;13.02;2.58;;;;;;;20.93;49.58;99419.56;4439068;32;20327;-69
2021/11/12 15:29:52;;;;;;;12.27;2.45;;;;;;;20.42;51.21;99417.94;4417657;32;20091;-70
2021/11/12 15:34:44;;;;;;;11.35;2.10;;;;;;;20.83;50.41;99424.16;3975423;32;15023135;-69
2021/11/12 15:37:18;;;;;;;11.02;2.45;;;;;;;20.65;50.91;99422.03;4428190;32;20085;-69
2021/11/12 15:45:04;;;;;;;10.98;1.85;;;;;;;21.13;49.59;99426.88;3981872;32;15024405;-70
2021/11/12 15:47:33;;;;;;;11.48;2.22;;;;;;;21.13;49.59;99426.88;4431433;32;20089;-70
2021/11/12 15:50:09;;;;;;;9.35;2.33;;;;;;;20.76;50.01;99429.69;4439224;32;20479;-70
2021/11/12 15:52:49;;;;;;;8.23;1.70;;;;;;;20.70;50.09;99431.84;4438299;32;20101;-70
2021/11/12 16:00:41;;;;;;;6.85;1.90;;;;;;;21.26;49.86;99433.44;3976006;32;15022281;-68
2021/11/12 16:13:54;;;;;;;8.00;1.73;;;;;;;20.12;51.70;99428.66;4433641;32;20109;-69
2021/11/12 16:27:11;;;;;;;6.20;1.62;;;;;;;20.64;50.49;99420.50;3976231;32;15037933;-69
2021/11/12 16:29:40;;;;;;;8.43;1.80;;;;;;;20.64;50.49;99420.50;4427146;32;20173;-69
2021/11/12 16:32:10;;;;;;;9.52;2.00;;;;;;;20.06;51.79;99421.44;4426228;32;20431;-69
2021/11/12 16:34:43;;;;;;;11.73;2.00;;;;;;;20.48;51.49;99432.16;4426172;32;20119;-69
2021/11/12 16:37:10;;;;;;;11.25;2.25;;;;;;;20.73;51.06;99443.00;4426064;32;20054;-69
2021/11/12 16:39:44;;;;;;;9.30;2.47;;;;;;;20.63;50.87;99446.78;4425380;32;20523;-68
2021/11/12 16:42:21;;;;;;;10.82;2.53;;;;;;;20.72;50.46;99464.34;4423797;32;20059;-69
2021/11/12 16:44:56;;;;;;;12.77;2.67;;;;;;;21.09;50.54;99475.81;4423871;32;20323;-70
2021/11/12 16:47:29;;;;;;;9.77;3.15;;;;;;;21.09;50.92;99486.47;4426987;32;20034;-68
2021/11/12 16:55:36;;;;;;;8.55;2.08;;;;;;;21.74;49.12;99517.53;4002560;31;15019411;-69
2021/11/12 16:58:10;;;;;;;11.20;4.35;;;;;;;21.74;49.12;99517.53;4457736;32;20087;-69
2021/11/12 17:01:04;;;;;;;4.45;1.50;;;;;;;21.48;50.03;99507.50;4453182;32;20041;-69
2021/11/12 17:06:12;;;;;;;5.95;1.30;;;;;;;20.37;49.67;99489.44;3979792;32;15021346;-69
2021/11/12 17:14:27;;;;;;;6.82;1.65;;;;;;;20.61;49.37;99466.53;3996722;31;15017648;-69
2021/11/12 17:16:45;;;;;;;4.82;1.00;;;;;;;20.61;49.37;99466.53;4454535;32;20108;-69
2021/11/12 17:19:34;;;;;;;1.52;0.80;;;;;;;20.01;49.89;99450.81;4456467;32;20372;-69
2021/11/12 17:49:17;;;;;;;6.85;2.35;;;;;;;19.97;49.62;99468.25;3986460;32;15021718;-69
2021/11/12 18:05:25;;;;;;;9.35;3.22;;;;;;;19.97;50.07;99479.66;3985352;32;15024054;-69
2021/11/12 18:11:02;;;;;;;8.32;2.90;;;;;;;20.22;49.84;99489.06;3981126;32;15024759;-68
2021/11/12 21:46:23;;;;;;;9.63;1.58;;;;;;;18.25;51.65;99563.75;4432438;32;20077;-69
2021/11/12 21:48:58;;;;;;;5.15;1.25;;;;;;;18.58;50.99;99564.50;4433371;32;20777;-70
2021/11/12 21:51:26;;;;;;;5.80;1.60;;;;;;;18.78;50.47;99594.75;4437137;32;20065;-69
2021/11/12 21:53:53;;;;;;;7.90;1.10;;;;;;;18.38;51.42;99592.50;4431242;32;20056;-68
2021/11/12 21:56:19;;;;;;;9.48;1.90;;;;;;;18.44;51.63;99596.87;4428627;32;20438;-69
2021/11/12 21:58:45;;;;;;;6.75;1.52;;;;;;;18.52;51.18;99591.44;4432375;32;20076;-69